createdAt,value
2019-03-30T00:03:35.058Z,57.7
2019-03-30T00:08:40.352Z,52.8
2019-03-30T00:13:45.563Z,52.7
2019-03-30T00:18:51.000Z,54.2
2019-03-30T00:23:56.271Z,54.3
2019-03-30T00:29:01.655Z,44.5
2019-03-30T00:34:06.785Z,47.7
2019-03-30T00:39:12.011Z,42.7
2019-03-30T00:44:17.076Z,40.3
2019-03-30T00:49:22.285Z,42.8
2019-03-30T00:54:27.347Z,49
2019-03-30T00:59:32.560Z,44.9
2019-03-30T01:04:37.920Z,48.2
2019-03-30T01:09:43.263Z,46.9
2019-03-30T01:14:50.232Z,38.9
2019-03-30T01:20:02.562Z,41.1
2019-03-30T01:24:58.684Z,41.4
2019-03-30T01:30:04.362Z,44
2019-03-30T01:35:09.405Z,39.8
2019-03-30T01:40:14.989Z,41.5
2019-03-30T01:45:20.573Z,38.5
2019-03-30T01:50:25.873Z,40.5
2019-03-30T01:55:30.949Z,45
2019-03-30T02:00:36.294Z,46.1
2019-03-30T02:05:41.690Z,44.7
2019-03-30T02:10:47.202Z,47.4
2019-03-30T02:15:52.460Z,48.7
2019-03-30T02:20:57.912Z,48.7
2019-03-30T02:26:03.251Z,54.8
2019-03-30T02:31:07.136Z,48.2
2019-03-30T02:36:12.304Z,50.6
2019-03-30T02:41:17.774Z,52
2019-03-30T02:46:23.902Z,51.4
2019-03-30T02:51:29.535Z,49.6
2019-03-30T02:56:35.278Z,52.8
2019-03-30T03:01:40.946Z,54.1
2019-03-30T03:06:46.614Z,52.5
2019-03-30T03:11:52.265Z,49.5
2019-03-30T03:16:56.061Z,52.8
2019-03-30T03:22:01.352Z,55.3
2019-03-30T03:27:06.570Z,53.8
2019-03-30T03:32:12.097Z,50.3
2019-03-30T03:37:17.480Z,51.2
2019-03-30T03:42:22.758Z,53.2
2019-03-30T03:47:26.574Z,53.6
2019-03-30T03:52:31.896Z,71
2019-03-30T03:57:37.078Z,62
2019-03-30T04:02:43.314Z,63.1
2019-03-30T04:07:48.943Z,51.9
2019-03-30T04:12:54.278Z,51.4
2019-03-30T04:17:59.335Z,50.5
2019-03-30T04:23:06.254Z,64.5
2019-03-30T04:28:11.971Z,63
2019-03-30T04:33:17.920Z,53.1
2019-03-30T04:38:23.232Z,60.8
2019-03-30T04:43:28.443Z,62.1
2019-03-30T04:48:33.845Z,60.1
2019-03-30T04:53:39.030Z,67.4
2019-03-30T04:58:44.265Z,58.2
2019-03-30T05:03:49.605Z,63
2019-03-30T05:08:54.789Z,60.1
2019-03-30T05:14:00.407Z,61.9
2019-03-30T05:19:05.690Z,70.5
2019-03-30T05:24:11.039Z,65
2019-03-30T05:29:17.505Z,56.2
2019-03-30T05:34:23.121Z,55.7
2019-03-30T05:39:27.764Z,53.8
2019-03-30T05:44:36.204Z,52.3
2019-03-30T05:49:41.499Z,67.3
2019-03-30T05:54:46.749Z,70.6
2019-03-30T05:59:51.844Z,66.8
2019-03-30T06:05:03.228Z,60.2
2019-03-30T06:10:09.224Z,69.2
2019-03-30T06:15:14.577Z,68.2
2019-03-30T06:20:19.817Z,66.7
2019-03-30T06:25:24.931Z,99.5
2019-03-30T06:30:30.093Z,80.3
2019-03-30T06:35:33.994Z,72.8
2019-03-30T06:40:39.430Z,65.4
2019-03-30T06:45:45.488Z,62.7
2019-03-30T06:50:50.618Z,56.3
2019-03-30T06:55:55.688Z,51.6
2019-03-30T07:01:03.353Z,54.4
2019-03-30T07:06:08.671Z,55
2019-03-30T07:11:20.825Z,49.4
2019-03-30T07:16:16.732Z,56.2
2019-03-30T07:21:23.470Z,47
2019-03-30T07:26:28.788Z,46.4
2019-03-30T07:31:33.776Z,44.1
2019-03-30T07:36:38.916Z,45.4
2019-03-30T07:41:44.689Z,49.6
2019-03-30T07:46:50.074Z,44.3
2019-03-30T07:51:55.534Z,49.2
2019-03-30T07:57:05.465Z,41.5
2019-03-30T08:02:04.471Z,40.6
2019-03-30T08:07:09.503Z,40.3
2019-03-30T08:12:14.731Z,36.5
2019-03-30T08:17:20.110Z,36
2019-03-30T08:22:25.203Z,33.4
2019-03-30T08:27:31.556Z,34.3
2019-03-30T08:32:37.489Z,33
2019-03-30T08:37:45.581Z,34.7
2019-03-30T08:42:53.479Z,35.1
2019-03-30T08:47:59.158Z,30.8
2019-03-30T08:53:03.110Z,31.5
2019-03-30T08:58:08.200Z,35.5
2019-03-30T09:03:14.828Z,29.8
2019-03-30T09:08:19.942Z,27.1
2019-03-30T09:13:23.675Z,30.1
2019-03-30T09:18:28.721Z,29
2019-03-30T09:23:33.870Z,26.6
2019-03-30T09:28:39.235Z,39.2
2019-03-30T09:33:44.464Z,30
2019-03-30T09:38:50.797Z,31
2019-03-30T09:43:56.133Z,30.3
2019-03-30T09:49:01.457Z,36.8
2019-03-30T09:54:06.944Z,26.4
2019-03-30T09:59:08.048Z,28.5
2019-03-30T10:04:13.356Z,25.6
2019-03-30T10:09:19.109Z,27.4
2019-03-30T10:14:30.062Z,38
2019-03-30T10:19:28.107Z,41.1
2019-03-30T10:24:38.191Z,28.7
2019-03-30T10:29:37.034Z,25.9
2019-03-30T10:34:42.094Z,29.2
2019-03-30T10:39:45.357Z,30.9
2019-03-30T10:44:52.957Z,25.5
2019-03-30T10:49:58.256Z,28.4
2019-03-30T10:55:03.349Z,26.6
2019-03-30T11:00:08.963Z,29.1
2019-03-30T11:05:14.242Z,29.1
2019-03-30T11:10:20.196Z,30
2019-03-30T11:15:25.564Z,29.2
2019-03-30T11:20:30.835Z,33.3
2019-03-30T11:25:36.896Z,28.8
2019-03-30T11:30:42.644Z,29.8
2019-03-30T11:35:48.121Z,30.4
2019-03-30T11:40:53.916Z,30.9
2019-03-30T11:45:57.785Z,47
2019-03-30T11:51:07.097Z,28.3
2019-03-30T11:56:12.461Z,96.7
2019-03-30T12:01:17.655Z,27.7
2019-03-30T12:06:26.523Z,29.4
2019-03-30T12:11:31.659Z,53.5
2019-03-30T12:16:36.866Z,30.9
2019-03-30T12:21:42.251Z,26.2
2019-03-30T12:26:46.453Z,26.4
2019-03-30T12:31:51.711Z,24.6
2019-03-30T12:36:56.936Z,32.7
2019-03-30T12:42:02.317Z,25.4
2019-03-30T12:47:10.195Z,28.1
2019-03-30T12:52:15.867Z,28.6
2019-03-30T12:57:24.649Z,39.4
2019-03-30T13:02:32.431Z,32.1
2019-03-30T13:07:40.197Z,27.6
2019-03-30T13:12:45.775Z,27.4
2019-03-30T13:17:51.596Z,32.8
2019-03-30T13:22:56.682Z,31.4
2019-03-30T13:28:01.801Z,32.2
2019-03-30T13:33:06.962Z,30.2
2019-03-30T13:38:12.576Z,24.8
2019-03-30T13:43:18.264Z,29.5
2019-03-30T13:48:21.785Z,31.8
2019-03-30T13:53:28.380Z,34.7
2019-03-30T13:58:36.482Z,32.4
2019-03-30T14:03:42.274Z,29.5
2019-03-30T14:08:50.387Z,24.7
2019-03-30T14:13:54.134Z,29.1
2019-03-30T14:18:59.388Z,28.2
2019-03-30T14:24:05.111Z,28.1
2019-03-30T14:29:10.269Z,26.8
2019-03-30T14:34:15.967Z,26
2019-03-30T14:39:21.557Z,37.4
2019-03-30T14:44:27.672Z,33.1
2019-03-30T14:49:35.405Z,40.1
2019-03-30T14:54:51.975Z,49.9
2019-03-30T14:59:48.456Z,32.3
2019-03-30T15:04:59.363Z,36.7
2019-03-30T15:09:57.300Z,32.1
2019-03-30T15:15:02.262Z,28
2019-03-30T15:20:10.214Z,36.8
2019-03-30T15:25:16.124Z,34.6
2019-03-30T15:30:20.062Z,51.5
2019-03-30T15:35:25.263Z,43.3
2019-03-30T15:40:30.333Z,33.2
2019-03-30T15:45:39.825Z,29.3
2019-03-30T15:50:45.014Z,48.3
2019-03-30T15:55:50.353Z,50.9
2019-03-30T16:00:57.686Z,33.5
2019-03-30T16:06:01.688Z,37.1
2019-03-30T16:11:07.260Z,46.7
2019-03-30T16:16:11.143Z,40
2019-03-30T16:21:16.246Z,38.9
2019-03-30T16:26:21.805Z,39.9
2019-03-30T16:31:26.894Z,46.2
2019-03-30T16:36:32.224Z,56.2
2019-03-30T16:41:38.971Z,50.5
2019-03-30T16:46:46.380Z,46.3
2019-03-30T16:51:51.640Z,57.8
2019-03-30T16:56:57.182Z,37.2
2019-03-30T17:02:02.732Z,55.2
2019-03-30T17:07:08.136Z,79.5
2019-03-30T17:12:13.187Z,63.3
2019-03-30T17:17:17.054Z,67.4
2019-03-30T17:22:22.160Z,69.5
2019-03-30T17:27:27.677Z,55.8
2019-03-30T17:32:32.988Z,77.5
2019-03-30T17:37:38.206Z,93.2
2019-03-30T17:42:44.321Z,78.1
2019-03-30T17:47:50.257Z,71.2
2019-03-30T17:52:56.084Z,62.7
2019-03-30T17:58:12.578Z,61.5
2019-03-30T18:03:08.560Z,106.6
2019-03-30T18:08:15.103Z,76.4
2019-03-30T18:13:20.701Z,80.6
2019-03-30T18:18:25.944Z,62.3
2019-03-30T18:23:31.315Z,53.6
2019-03-30T18:28:38.011Z,56
2019-03-30T18:33:43.584Z,46.5
2019-03-30T18:38:51.327Z,45.3
2019-03-30T18:43:53.848Z,47.6
2019-03-30T18:48:58.799Z,56.1
2019-03-30T18:54:03.979Z,38.4
2019-03-30T18:59:11.468Z,45.3
2019-03-30T19:04:17.007Z,52.8
2019-03-30T19:09:23.445Z,78
2019-03-30T19:14:30.907Z,107.3
2019-03-30T19:19:36.121Z,79.5
2019-03-30T19:24:41.875Z,69.4
2019-03-30T19:29:45.689Z,75
2019-03-30T19:34:51.241Z,81.3
2019-03-30T19:39:56.971Z,76.9
2019-03-30T19:45:02.283Z,81.8
2019-03-30T19:50:08.058Z,70.7
2019-03-30T19:55:13.306Z,75.1
2019-03-30T20:00:20.441Z,74.6
2019-03-30T20:05:24.345Z,81.3
2019-03-30T20:10:29.417Z,91.1
2019-03-30T20:15:29.414Z,88.4
2019-03-30T20:20:35.278Z,82.5
2019-03-30T20:25:40.490Z,79.9
2019-03-30T20:30:48.387Z,84.6
2019-03-30T20:35:46.702Z,81.6
2019-03-30T20:40:50.807Z,72.6
2019-03-30T20:45:56.101Z,86.9
2019-03-30T20:51:01.246Z,94.4
2019-03-30T20:56:06.453Z,86.4
2019-03-30T21:01:11.969Z,86.2
2019-03-30T21:06:17.037Z,85
2019-03-30T21:11:22.465Z,80.5
2019-03-30T21:16:27.537Z,89.5
2019-03-30T21:21:32.919Z,85.4
2019-03-30T21:26:38.561Z,81.7
2019-03-30T21:31:49.203Z,82
2019-03-30T21:36:56.291Z,84.2
2019-03-30T21:42:01.748Z,112.9
2019-03-30T21:47:07.073Z,116.9
2019-03-30T21:52:13.577Z,113.7
2019-03-30T21:57:18.806Z,131.2
2019-03-30T22:02:24.379Z,139.1
2019-03-30T22:07:30.047Z,100.8
2019-03-30T22:12:35.427Z,140.8
2019-03-30T22:17:40.557Z,113.6
2019-03-30T22:22:46.018Z,115.1
2019-03-30T22:27:51.087Z,121.7
2019-03-30T22:32:56.256Z,121.2
2019-03-30T22:38:01.559Z,126.6
2019-03-30T22:43:07.318Z,137
2019-03-30T22:48:12.712Z,147.1
2019-03-30T22:53:18.132Z,136.1
2019-03-30T22:58:23.813Z,140.5
2019-03-30T23:03:29.264Z,120.1
2019-03-30T23:08:34.712Z,134.6
2019-03-30T23:13:41.147Z,104.5
2019-03-30T23:18:46.655Z,134.8
2019-03-30T23:23:52.061Z,123.4
2019-03-30T23:28:59.374Z,124
2019-03-30T23:34:03.686Z,139.7
2019-03-30T23:39:10.194Z,126.4
2019-03-30T23:44:16.278Z,126.3
2019-03-30T23:49:21.661Z,139
2019-03-30T23:54:27.003Z,126.2
2019-03-30T23:59:32.071Z,118
